Accueil
METAR-TAF:

METAR-TAF

Aéroports :

Aéroport de Cherbourg - Maupertus

Cherbourg, France

latitude: 49-39N, longitude: 001-28W, altitude: 138 m

Observation

Le bulletin a été fait il y a 38 minutes, à 19:00 UTC
Vent 4 kt de sud
Température 11°C
Humidité 87%
Pression 1029 hPa
Visibilité 10 km ou plus
Nuages épars à une hauteur de 4200 ft

METAR: LFRC 061900Z AUTO 19004KT 9999 SCT042 11/09 Q1029

Heure: 21:38 (19:38 UTC)

Prévision

Le bulletin a été fait il y a 5 heures et 38 minutes, à 14:00 UTC
Prévision valable du 06 à 15 UTC au 06 à 24 UTC
Vent 8 kt de ouest/sud-ouest
Visibilité 10 km ou plus
Nuages épars à une hauteur de 4000 ft

TAF: LFRC 061400Z 0615/0624 25008KT 9999 SCT040

Observations et prévisions météorologiques de plus de 4000 aéroports (messages METAR et TAF).

Les stations disponibles sont représentées par des disques jaunes et rouges sur la carte.

Passer la souris dessus pour voir le nom de la station.

Cliquer dessus pour voir les observations et prévisions météorologiques.

Pour changer de carte: cliquez sur les boutons verts avec une croix noire pour zoomer, sur le bouton vert avec un tiret pour effectuer un zoom arrière, ou sur les flèches vertes pour les cartes adjacentes.


METAR-TAF: